aviador You're here:

LEBG Decoded Metar

BURGOS in SPAIN
Report Time2017-12-17 07:30:00
UTC Time2017-12-17 07:55:27
Flight Rules vfr VFR
WindVRB at 01 kt
Visibility9999 m
Phenomena:N/A
Clouds:Few 024 Hf
Broken 045 Hf
Expected CloudBase > 400 ft AGL from Temp-Dew spread
Ceiling4,500 ft
Temp00°C (ISA -9)
Dew Point-1°C (93% RH)
AAT-2.5°C
QNH1029 hPa
Density Alt1,355 ft
Elevation2,923 ft
Report Wrong Elevation
Raw Report
METAR LEBG 170730Z VRB01KT 9999 FEW024 BKN045 M00/M01 Q1029=

Extra information for LEBG:More info

Metar Taf Metar & Taf Last 4 Metars F.Rules Stats Wind Profile Meteogram Temp Stats Airport Information Weather charts Add Link Nearby VenuesMetar ALERT Operation Metar Decoded Social comments